createdAt,value
2018-06-09T00:01:37.822Z,26.00
2018-06-09T00:04:06.125Z,26.70
2018-06-09T00:06:34.404Z,26.40
2018-06-09T00:09:02.983Z,28.93
2018-06-09T00:11:31.289Z,27.63
2018-06-09T00:13:59.520Z,26.67
2018-06-09T00:16:27.759Z,27.93
2018-06-09T00:18:56.070Z,29.47
2018-06-09T00:21:24.315Z,28.53
2018-06-09T00:23:53.609Z,26.80
2018-06-09T00:26:22.749Z,26.93
2018-06-09T00:28:51.074Z,28.33
2018-06-09T00:31:19.383Z,27.70
2018-06-09T00:33:47.795Z,27.57
2018-06-09T00:36:16.163Z,25.67
2018-06-09T00:38:44.420Z,29.00
2018-06-09T00:41:12.799Z,26.70
2018-06-09T00:43:41.146Z,29.03
2018-06-09T00:46:09.386Z,29.10
2018-06-09T00:48:37.722Z,29.20
2018-06-09T00:51:06.249Z,28.97
2018-06-09T00:53:34.525Z,28.07
2018-06-09T00:56:14.112Z,28.87
2018-06-09T00:58:42.445Z,31.67
2018-06-09T01:01:11.362Z,30.83
2018-06-09T01:03:39.661Z,31.93
2018-06-09T01:06:07.930Z,31.10
2018-06-09T01:08:36.272Z,31.20
2018-06-09T01:11:04.652Z,29.87
2018-06-09T01:13:32.965Z,30.97
2018-06-09T01:16:01.496Z,29.90
2018-06-09T01:18:31.392Z,30.10
2018-06-09T01:20:59.673Z,32.73
2018-06-09T01:23:27.956Z,31.73
2018-06-09T01:25:56.238Z,30.77
2018-06-09T01:28:24.567Z,32.93
2018-06-09T01:30:52.833Z,33.27
2018-06-09T01:33:21.186Z,33.30
2018-06-09T01:35:49.419Z,31.97
2018-06-09T01:38:17.678Z,34.23
2018-06-09T01:40:45.941Z,32.43
2018-06-09T01:43:14.334Z,34.17
2018-06-09T01:45:42.633Z,36.20
2018-06-09T01:48:17.312Z,31.10
2018-06-09T01:50:45.585Z,31.77
2018-06-09T01:53:13.880Z,29.30
2018-06-09T01:56:01.408Z,34.63
2018-06-09T01:58:29.769Z,31.87
2018-06-09T02:01:04.696Z,33.57
2018-06-09T02:03:33.304Z,32.03
2018-06-09T02:06:01.668Z,30.93
2018-06-09T02:08:30.093Z,33.40
2018-06-09T02:10:58.358Z,33.80
2018-06-09T02:13:26.939Z,34.47
2018-06-09T02:15:55.245Z,32.47
2018-06-09T02:18:23.590Z,32.07
2018-06-09T02:20:51.629Z,34.33
2018-06-09T02:23:19.903Z,31.73
2018-06-09T02:25:48.127Z,32.93
2018-06-09T02:28:16.397Z,32.30
2018-06-09T02:30:44.670Z,33.60
2018-06-09T02:33:13.026Z,33.37
2018-06-09T02:35:41.288Z,33.07
2018-06-09T02:38:09.673Z,31.77
2018-06-09T02:40:37.944Z,33.00
2018-06-09T02:43:06.223Z,33.13
2018-06-09T02:45:34.546Z,31.77
2018-06-09T02:48:02.827Z,31.87
2018-06-09T02:50:31.139Z,31.63
2018-06-09T02:52:59.394Z,32.03
2018-06-09T02:55:27.710Z,30.50
2018-06-09T02:57:56.050Z,30.87
2018-06-09T03:00:24.476Z,31.53
2018-06-09T03:02:52.788Z,31.03
2018-06-09T03:05:21.062Z,32.53
2018-06-09T03:07:49.295Z,32.27
2018-06-09T03:10:17.584Z,30.63
2018-06-09T03:12:45.847Z,31.10
2018-06-09T03:15:14.202Z,30.90
2018-06-09T03:17:42.458Z,28.87
2018-06-09T03:20:10.852Z,30.90
2018-06-09T03:22:39.127Z,30.17
2018-06-09T03:25:07.386Z,29.83
2018-06-09T03:27:35.773Z,28.20
2018-06-09T03:30:04.162Z,27.90
2018-06-09T03:32:32.441Z,29.20
2018-06-09T03:35:00.649Z,28.10
2018-06-09T03:37:28.884Z,27.47
2018-06-09T03:39:57.138Z,29.80
2018-06-09T03:42:25.417Z,28.10
2018-06-09T03:44:53.694Z,28.10
2018-06-09T03:47:22.037Z,26.43
2018-06-09T03:49:50.277Z,26.63
2018-06-09T03:52:18.545Z,27.23
2018-06-09T03:54:46.818Z,27.60
2018-06-09T03:57:15.120Z,26.90
2018-06-09T03:59:43.385Z,27.83
2018-06-09T04:02:11.725Z,26.33
2018-06-09T04:04:40.006Z,28.60
2018-06-09T04:07:08.214Z,29.90
2018-06-09T04:09:36.618Z,27.93
2018-06-09T04:12:04.911Z,27.00
2018-06-09T04:14:33.169Z,27.20
2018-06-09T04:17:01.487Z,26.37
2018-06-09T04:19:29.779Z,25.83
2018-06-09T04:21:58.020Z,27.47
2018-06-09T04:24:26.281Z,27.60
2018-06-09T04:26:54.554Z,27.07
2018-06-09T04:29:22.878Z,27.53
2018-06-09T04:31:51.182Z,26.60
2018-06-09T04:34:19.522Z,25.40
2018-06-09T04:36:47.793Z,26.63
2018-06-09T04:39:16.066Z,28.90
2018-06-09T04:41:44.258Z,29.83
2018-06-09T04:44:12.471Z,26.63
2018-06-09T04:46:40.950Z,28.40
2018-06-09T04:49:09.189Z,27.00
2018-06-09T04:51:37.477Z,27.27
2018-06-09T04:54:05.753Z,27.53
2018-06-09T04:56:33.950Z,28.43
2018-06-09T04:59:02.159Z,27.37
2018-06-09T05:01:30.370Z,26.87
2018-06-09T05:03:58.631Z,28.50
2018-06-09T05:06:26.853Z,29.47
2018-06-09T05:08:55.065Z,30.67
2018-06-09T05:11:23.040Z,31.33
2018-06-09T05:13:51.252Z,28.77
2018-06-09T05:16:19.489Z,31.47
2018-06-09T05:18:47.698Z,30.47
2018-06-09T05:21:15.937Z,33.63
2018-06-09T05:23:44.238Z,30.27
2018-06-09T05:26:12.493Z,32.73
2018-06-09T05:28:40.717Z,33.03
2018-06-09T05:31:08.977Z,30.47
2018-06-09T05:33:37.236Z,31.83
2018-06-09T05:36:05.463Z,30.23
2018-06-09T05:38:33.671Z,31.43
2018-06-09T05:41:01.914Z,30.20
2018-06-09T05:43:30.135Z,30.07
2018-06-09T05:45:58.354Z,28.83
2018-06-09T05:48:26.665Z,32.70
2018-06-09T05:50:54.925Z,29.73
2018-06-09T05:53:23.217Z,28.63
2018-06-09T05:55:51.539Z,29.37
2018-06-09T05:58:19.786Z,27.50
2018-06-09T06:00:47.753Z,28.87
2018-06-09T06:03:16.074Z,27.13
2018-06-09T06:05:44.391Z,24.27
2018-06-09T06:08:12.709Z,24.80
2018-06-09T06:10:41.050Z,24.63
2018-06-09T06:13:09.450Z,23.53
2018-06-09T06:15:37.735Z,23.13
2018-06-09T06:18:05.975Z,21.77
2018-06-09T06:20:34.274Z,23.37
2018-06-09T06:23:02.549Z,23.03
2018-06-09T06:25:30.897Z,22.40
2018-06-09T06:27:59.170Z,22.13
2018-06-09T06:30:27.418Z,23.20
2018-06-09T06:32:55.726Z,23.57
2018-06-09T06:35:23.981Z,23.43
2018-06-09T06:37:52.330Z,23.93
2018-06-09T06:40:20.626Z,23.10
2018-06-09T06:42:49.166Z,23.17
2018-06-09T06:45:18.038Z,24.27
2018-06-09T06:47:46.433Z,25.67
2018-06-09T06:50:14.749Z,24.23
2018-06-09T06:52:43.542Z,23.63
2018-06-09T06:55:11.855Z,24.97
2018-06-09T06:57:40.217Z,25.33
2018-06-09T07:00:08.514Z,26.87
2018-06-09T07:02:36.836Z,27.57
2018-06-09T07:05:05.150Z,26.97
2018-06-09T07:07:33.538Z,28.37
2018-06-09T07:10:01.930Z,26.73
2018-06-09T07:12:30.151Z,26.00
2018-06-09T07:14:58.449Z,26.73
2018-06-09T07:17:26.703Z,26.40
2018-06-09T07:19:55.079Z,26.33
2018-06-09T07:22:23.408Z,27.10
2018-06-09T07:24:51.729Z,28.57
2018-06-09T07:27:20.011Z,28.53
2018-06-09T07:29:48.254Z,28.13
2018-06-09T07:32:16.557Z,30.90
2018-06-09T07:34:44.783Z,30.77
2018-06-09T07:37:13.431Z,29.50
2018-06-09T07:39:41.781Z,29.70
2018-06-09T07:42:10.083Z,32.43
2018-06-09T07:44:38.350Z,30.23
2018-06-09T07:47:06.644Z,30.80
2018-06-09T07:49:36.410Z,29.37
2018-06-09T07:52:04.639Z,29.07
2018-06-09T07:54:32.911Z,26.80
2018-06-09T07:57:01.300Z,30.13
2018-06-09T07:59:30.313Z,31.13
2018-06-09T08:01:58.646Z,28.33
2018-06-09T08:04:26.908Z,27.90
2018-06-09T08:06:55.338Z,27.60
2018-06-09T08:09:23.588Z,26.93
2018-06-09T08:11:52.038Z,27.20
2018-06-09T08:14:20.414Z,25.63
2018-06-09T08:16:48.723Z,25.33
2018-06-09T08:19:17.010Z,26.47
2018-06-09T08:21:45.259Z,25.23
2018-06-09T08:24:13.510Z,26.00
2018-06-09T08:26:41.747Z,24.60
2018-06-09T08:29:10.106Z,23.53
2018-06-09T08:31:38.539Z,24.67
2018-06-09T08:34:06.888Z,24.83
2018-06-09T08:36:35.358Z,24.23
2018-06-09T08:39:04.331Z,23.77
2018-06-09T08:41:32.934Z,23.50
2018-06-09T08:44:01.189Z,23.98
2018-06-09T08:46:29.628Z,22.17
2018-06-09T08:48:57.962Z,20.05
2018-06-09T08:51:26.488Z,21.75
2018-06-09T08:53:55.018Z,21.97
2018-06-09T08:56:23.372Z,22.30
2018-06-09T08:58:51.675Z,23.80
2018-06-09T09:01:20.306Z,22.05
2018-06-09T09:03:48.841Z,20.45
2018-06-09T09:06:17.256Z,22.25
2018-06-09T09:08:45.666Z,22.35
2018-06-09T09:11:13.946Z,21.50
2018-06-09T09:13:42.008Z,22.10
2018-06-09T09:16:10.273Z,21.73
2018-06-09T09:18:38.647Z,21.00
2018-06-09T09:21:07.038Z,19.33
2018-06-09T09:23:35.382Z,20.77
2018-06-09T09:26:03.714Z,20.37
2018-06-09T09:28:32.016Z,21.07
2018-06-09T09:31:00.473Z,19.20
2018-06-09T09:33:28.754Z,21.53
2018-06-09T09:35:57.398Z,21.07
2018-06-09T09:38:25.879Z,19.43
2018-06-09T09:40:54.251Z,20.10
2018-06-09T09:43:22.571Z,19.80
2018-06-09T09:45:50.881Z,19.43
2018-06-09T09:48:19.120Z,18.67
2018-06-09T09:50:47.398Z,17.90
2018-06-09T09:53:15.788Z,19.67
2018-06-09T09:55:44.231Z,18.27
2018-06-09T09:58:12.537Z,18.87
2018-06-09T10:00:41.078Z,18.30
2018-06-09T10:03:09.368Z,17.13
2018-06-09T10:05:37.805Z,17.57
2018-06-09T10:08:06.037Z,14.90
2018-06-09T10:10:34.350Z,14.60
2018-06-09T10:13:02.650Z,15.37
2018-06-09T10:15:31.025Z,14.07
2018-06-09T10:17:59.697Z,19.80
2018-06-09T10:20:28.119Z,13.07
2018-06-09T10:22:56.860Z,14.47
2018-06-09T10:25:25.150Z,11.60
2018-06-09T10:27:53.491Z,13.40
2018-06-09T10:30:21.504Z,12.77
2018-06-09T10:32:49.808Z,12.63
2018-06-09T10:35:18.109Z,12.77
2018-06-09T10:37:46.367Z,13.00
2018-06-09T10:40:14.705Z,11.03
2018-06-09T10:42:43.074Z,10.37
2018-06-09T10:45:11.479Z,13.47
2018-06-09T10:47:39.705Z,15.37
2018-06-09T10:50:08.050Z,12.43
2018-06-09T10:52:36.430Z,12.57
2018-06-09T10:55:04.809Z,12.17
2018-06-09T10:57:33.219Z,11.07
2018-06-09T11:00:01.503Z,10.53
2018-06-09T11:02:30.004Z,10.00
2018-06-09T11:04:58.403Z,10.97
2018-06-09T11:07:26.802Z,12.87
2018-06-09T11:09:55.195Z,12.80
2018-06-09T11:12:23.451Z,12.43
2018-06-09T11:14:51.818Z,12.50
2018-06-09T11:17:27.286Z,12.27
2018-06-09T11:19:56.784Z,11.33
2018-06-09T11:22:25.108Z,11.07
2018-06-09T11:24:53.421Z,11.50
2018-06-09T11:27:21.754Z,11.70
2018-06-09T11:29:50.279Z,12.53
2018-06-09T11:32:18.667Z,11.80
2018-06-09T11:34:46.953Z,10.80
2018-06-09T11:37:15.299Z,10.90
2018-06-09T11:39:43.598Z,10.40
2018-06-09T11:42:12.315Z,10.57
2018-06-09T11:44:40.615Z,11.23
2018-06-09T11:47:08.918Z,11.20
2018-06-09T11:49:37.411Z,11.30
2018-06-09T11:52:06.086Z,10.40
2018-06-09T11:54:34.346Z,11.00
2018-06-09T11:57:03.342Z,12.17
2018-06-09T11:59:31.815Z,10.77
2018-06-09T12:02:00.370Z,9.63
2018-06-09T12:04:28.644Z,9.33
2018-06-09T12:06:56.937Z,8.93
2018-06-09T12:09:25.199Z,9.47
2018-06-09T12:11:53.922Z,8.43
2018-06-09T12:14:22.195Z,9.73
2018-06-09T12:16:50.410Z,9.47
2018-06-09T12:19:18.709Z,17.53
2018-06-09T12:21:46.694Z,15.20
2018-06-09T12:24:14.973Z,8.30
2018-06-09T12:26:43.252Z,9.17
2018-06-09T12:29:11.538Z,8.37
2018-06-09T12:31:39.815Z,8.47
2018-06-09T12:34:08.161Z,8.87
2018-06-09T12:36:36.542Z,7.93
2018-06-09T12:39:07.069Z,7.27
2018-06-09T12:41:35.437Z,8.10
2018-06-09T12:44:03.721Z,9.33
2018-06-09T12:46:32.030Z,9.57
2018-06-09T12:49:00.598Z,9.23
2018-06-09T12:51:29.221Z,9.13
2018-06-09T12:53:57.597Z,9.37
2018-06-09T12:56:25.998Z,9.77
2018-06-09T12:58:54.371Z,11.10
2018-06-09T13:01:22.927Z,10.37
2018-06-09T13:03:51.206Z,10.23
2018-06-09T13:06:22.598Z,10.77
2018-06-09T13:08:50.839Z,11.20
2018-06-09T13:11:19.167Z,10.73
2018-06-09T13:13:48.301Z,10.43
2018-06-09T13:16:16.597Z,10.80
2018-06-09T13:18:44.914Z,10.37
2018-06-09T13:21:13.332Z,11.43
2018-06-09T13:23:41.575Z,11.17
2018-06-09T13:26:09.945Z,13.17
2018-06-09T13:28:39.012Z,12.97
2018-06-09T13:31:07.334Z,12.17
2018-06-09T13:33:35.756Z,12.13
2018-06-09T13:36:04.144Z,9.67
2018-06-09T13:38:32.535Z,11.60
2018-06-09T13:41:00.942Z,11.37
2018-06-09T13:43:29.262Z,12.07
2018-06-09T13:45:57.683Z,13.10
2018-06-09T13:48:25.945Z,11.07
2018-06-09T13:50:54.280Z,10.60
2018-06-09T13:53:22.586Z,12.87
2018-06-09T13:55:50.842Z,13.13
2018-06-09T13:58:19.178Z,12.40
2018-06-09T14:00:47.605Z,12.47
2018-06-09T14:03:15.871Z,13.23
2018-06-09T14:05:44.476Z,11.53
2018-06-09T14:08:12.747Z,13.40
2018-06-09T14:10:40.987Z,13.07
2018-06-09T14:13:09.258Z,11.37
2018-06-09T14:15:37.590Z,12.17
2018-06-09T14:18:05.832Z,13.03
2018-06-09T14:20:34.190Z,12.97
2018-06-09T14:23:02.459Z,13.97
2018-06-09T14:25:31.732Z,13.13
2018-06-09T14:28:00.018Z,13.00
2018-06-09T14:30:28.350Z,13.80
2018-06-09T14:32:56.603Z,13.20
2018-06-09T14:35:25.045Z,12.40
2018-06-09T14:37:53.406Z,12.90
2018-06-09T14:40:21.693Z,12.87
2018-06-09T14:42:49.982Z,13.60
2018-06-09T14:45:18.247Z,12.60
2018-06-09T14:47:47.174Z,13.00
2018-06-09T14:50:15.406Z,12.83
2018-06-09T14:52:43.605Z,13.17
2018-06-09T14:55:12.091Z,13.20
2018-06-09T14:57:40.566Z,12.67
2018-06-09T15:00:08.942Z,11.80
2018-06-09T15:02:37.276Z,13.97
2018-06-09T15:05:05.522Z,12.43
2018-06-09T15:07:33.774Z,12.53
2018-06-09T15:10:02.050Z,12.67
2018-06-09T15:12:30.387Z,12.50
2018-06-09T15:14:58.870Z,12.87
2018-06-09T15:17:27.229Z,11.50
2018-06-09T15:19:55.558Z,13.07
2018-06-09T15:22:23.856Z,12.43
2018-06-09T15:24:52.122Z,13.70
2018-06-09T15:27:20.490Z,13.33
2018-06-09T15:29:48.744Z,12.47
2018-06-09T15:32:16.977Z,13.33
2018-06-09T15:34:46.090Z,13.43
2018-06-09T15:37:14.592Z,12.97
2018-06-09T15:39:42.857Z,13.43
2018-06-09T15:42:11.097Z,13.30
2018-06-09T15:44:39.737Z,14.00
2018-06-09T15:47:08.012Z,12.10
2018-06-09T15:49:36.287Z,12.07
2018-06-09T15:52:04.577Z,11.90
2018-06-09T15:54:32.943Z,10.93
2018-06-09T15:57:01.415Z,12.53
2018-06-09T15:59:30.818Z,12.23
2018-06-09T16:01:59.061Z,11.00
2018-06-09T16:04:27.387Z,12.07
2018-06-09T16:06:55.720Z,10.87
2018-06-09T16:09:23.997Z,12.40
2018-06-09T16:11:52.233Z,11.60
2018-06-09T16:14:20.579Z,12.17
2018-06-09T16:16:49.244Z,10.77
2018-06-09T16:19:17.510Z,11.00
2018-06-09T16:21:45.526Z,11.30
2018-06-09T16:24:13.790Z,10.60
2018-06-09T16:26:42.026Z,10.43
2018-06-09T16:29:10.343Z,11.13
2018-06-09T16:31:39.001Z,9.87
2018-06-09T16:34:07.266Z,10.60
2018-06-09T16:36:35.587Z,9.93
2018-06-09T16:39:05.679Z,10.80
2018-06-09T16:41:34.962Z,10.97
2018-06-09T16:44:03.324Z,11.27
2018-06-09T16:46:31.599Z,9.60
2018-06-09T16:48:59.990Z,9.30
2018-06-09T16:51:28.293Z,9.60
2018-06-09T16:53:56.613Z,9.83
2018-06-09T16:56:24.895Z,8.87
2018-06-09T16:58:53.136Z,9.87
2018-06-09T17:01:21.458Z,9.60
2018-06-09T17:03:49.737Z,9.23
2018-06-09T17:06:18.038Z,9.37
2018-06-09T17:08:46.315Z,9.40
2018-06-09T17:11:14.622Z,9.80
2018-06-09T17:13:45.134Z,8.63
2018-06-09T17:16:13.931Z,9.33
2018-06-09T17:18:42.234Z,9.27
2018-06-09T17:21:10.549Z,9.03
2018-06-09T17:23:38.850Z,10.17
2018-06-09T17:26:07.532Z,8.43
2018-06-09T17:28:35.882Z,9.60
2018-06-09T17:31:04.265Z,9.63
2018-06-09T17:33:32.571Z,10.33
2018-06-09T17:36:00.928Z,10.00
2018-06-09T17:38:29.584Z,9.27
2018-06-09T17:40:57.967Z,8.23
2018-06-09T17:43:26.219Z,9.83
2018-06-09T17:45:54.490Z,10.40
2018-06-09T17:48:22.737Z,9.13
2018-06-09T17:50:50.994Z,8.03
2018-06-09T17:53:19.305Z,9.70
2018-06-09T17:55:47.592Z,8.80
2018-06-09T17:58:16.236Z,9.47
2018-06-09T18:00:44.510Z,8.93
2018-06-09T18:03:12.842Z,9.30
2018-06-09T18:05:42.022Z,9.43
2018-06-09T18:08:10.222Z,10.67
2018-06-09T18:10:38.656Z,10.13
2018-06-09T18:13:06.991Z,9.17
2018-06-09T18:15:35.425Z,9.93
2018-06-09T18:18:03.833Z,10.67
2018-06-09T18:20:32.588Z,9.60
2018-06-09T18:23:00.996Z,9.93
2018-06-09T18:25:29.235Z,9.73
2018-06-09T18:27:57.838Z,9.10
2018-06-09T18:30:26.095Z,9.43
2018-06-09T18:32:54.343Z,10.07
2018-06-09T18:35:22.796Z,10.00
2018-06-09T18:37:51.177Z,10.23
2018-06-09T18:40:19.911Z,10.17
2018-06-09T18:42:48.234Z,9.47
2018-06-09T18:45:16.559Z,9.87
2018-06-09T18:47:45.091Z,10.63
2018-06-09T18:50:13.456Z,10.90
2018-06-09T18:52:41.807Z,11.70
2018-06-09T18:55:10.423Z,10.80
2018-06-09T18:57:38.703Z,10.47
2018-06-09T19:00:07.686Z,10.37
2018-06-09T19:02:36.017Z,9.63
2018-06-09T19:05:04.315Z,11.63
2018-06-09T19:07:32.822Z,10.80
2018-06-09T19:10:01.186Z,10.93
2018-06-09T19:12:29.505Z,10.33
2018-06-09T19:14:59.482Z,10.20
2018-06-09T19:17:28.096Z,10.83
2018-06-09T19:19:57.759Z,10.70
2018-06-09T19:22:26.013Z,10.23
2018-06-09T19:24:54.318Z,10.73
2018-06-09T19:27:22.639Z,10.73
2018-06-09T19:29:50.985Z,10.50
2018-06-09T19:32:23.511Z,10.90
2018-06-09T19:34:52.205Z,11.47
2018-06-09T19:37:23.887Z,11.77
2018-06-09T19:39:55.080Z,11.50
2018-06-09T19:42:24.105Z,11.33
2018-06-09T19:44:52.433Z,11.17
2018-06-09T19:47:21.829Z,12.03
2018-06-09T19:49:51.602Z,12.03
2018-06-09T19:52:20.072Z,13.17
2018-06-09T19:54:48.979Z,11.83
2018-06-09T19:57:17.385Z,12.00
2018-06-09T19:59:46.604Z,11.77
2018-06-09T20:02:14.908Z,11.90
2018-06-09T20:04:43.178Z,11.67
2018-06-09T20:07:11.534Z,12.20
2018-06-09T20:09:39.867Z,14.23
2018-06-09T20:12:08.662Z,12.63
2018-06-09T20:14:37.101Z,11.90
2018-06-09T20:17:05.464Z,11.47
2018-06-09T20:19:34.429Z,12.23
2018-06-09T20:22:02.758Z,11.70
2018-06-09T20:24:31.726Z,12.37
2018-06-09T20:26:59.982Z,10.70
2018-06-09T20:29:28.406Z,11.67
2018-06-09T20:31:56.842Z,11.47
2018-06-09T20:34:25.905Z,11.13
2018-06-09T20:36:54.646Z,10.13
2018-06-09T20:39:22.930Z,11.30
2018-06-09T20:41:51.218Z,10.60
2018-06-09T20:44:19.501Z,12.13
2018-06-09T20:46:47.806Z,11.23
2018-06-09T20:49:16.053Z,10.83
2018-06-09T20:51:44.419Z,11.07
2018-06-09T20:54:12.700Z,11.97
2018-06-09T20:56:41.250Z,10.90
2018-06-09T20:59:09.533Z,10.90
2018-06-09T21:01:37.831Z,11.33
2018-06-09T21:04:06.093Z,10.50
2018-06-09T21:06:34.395Z,12.20
2018-06-09T21:09:04.475Z,11.37
2018-06-09T21:11:32.718Z,10.77
2018-06-09T21:14:00.966Z,12.30
2018-06-09T21:16:29.299Z,11.37
2018-06-09T21:18:57.600Z,11.47
2018-06-09T21:21:25.866Z,11.17
2018-06-09T21:23:54.194Z,10.57
2018-06-09T21:26:23.676Z,11.00
2018-06-09T21:28:55.033Z,10.67
2018-06-09T21:31:28.845Z,10.47
2018-06-09T21:34:08.525Z,10.80
2018-06-09T21:36:42.173Z,10.20
2018-06-09T21:39:17.771Z,10.37
2018-06-09T21:41:51.657Z,11.43
2018-06-09T21:44:25.413Z,13.50
2018-06-09T21:46:53.772Z,12.97
2018-06-09T21:49:22.118Z,13.20
2018-06-09T21:51:50.338Z,14.57
2018-06-09T21:54:18.654Z,15.07
2018-06-09T21:56:46.908Z,14.13
2018-06-09T21:59:15.292Z,13.83
2018-06-09T22:01:43.598Z,15.37
2018-06-09T22:04:11.889Z,15.63
2018-06-09T22:06:40.217Z,16.13
2018-06-09T22:09:08.471Z,15.77
2018-06-09T22:11:36.730Z,15.63
2018-06-09T22:14:05.032Z,15.47
2018-06-09T22:16:33.257Z,13.63
2018-06-09T22:19:01.486Z,14.10
2018-06-09T22:21:29.721Z,13.37
2018-06-09T22:23:58.004Z,13.10
2018-06-09T22:26:26.298Z,14.50
2018-06-09T22:28:54.556Z,12.57
2018-06-09T22:31:22.906Z,13.43
2018-06-09T22:33:51.110Z,12.23
2018-06-09T22:36:19.407Z,14.83
2018-06-09T22:38:47.689Z,17.90
2018-06-09T22:41:15.934Z,11.03
2018-06-09T22:43:44.285Z,10.90
2018-06-09T22:46:12.534Z,11.00
2018-06-09T22:48:40.780Z,10.67
2018-06-09T22:51:09.066Z,11.03
2018-06-09T22:53:38.915Z,9.60
2018-06-09T22:56:07.491Z,10.97
2018-06-09T22:58:35.713Z,10.47
2018-06-09T23:01:03.928Z,9.57
2018-06-09T23:03:32.214Z,10.03
2018-06-09T23:06:00.595Z,10.80
2018-06-09T23:08:28.827Z,10.47
2018-06-09T23:10:57.111Z,11.27
2018-06-09T23:13:25.526Z,10.90
2018-06-09T23:15:53.795Z,11.60
2018-06-09T23:18:22.063Z,9.90
2018-06-09T23:20:50.355Z,14.90
2018-06-09T23:23:18.626Z,9.73
2018-06-09T23:25:46.864Z,9.90
2018-06-09T23:28:15.171Z,10.30
2018-06-09T23:30:43.461Z,12.70
2018-06-09T23:33:11.745Z,10.77
2018-06-09T23:35:40.049Z,10.80
2018-06-09T23:38:08.261Z,11.00
2018-06-09T23:40:36.536Z,11.50
2018-06-09T23:43:04.761Z,14.50
2018-06-09T23:45:33.077Z,11.20
2018-06-09T23:48:01.294Z,10.47
2018-06-09T23:50:29.503Z,11.47
2018-06-09T23:52:57.799Z,11.70
2018-06-09T23:55:26.043Z,12.73
2018-06-09T23:57:54.334Z,15.70
